sensor_id;sensor_type;location;lat;lon;timestamp;temperature;humidity
52867;DHT22;38739;53.324;6.862;2022-10-16T00:01:46;12.10;99.90
52867;DHT22;38739;53.324;6.862;2022-10-16T00:04:12;12.20;99.90
52867;DHT22;38739;53.324;6.862;2022-10-16T00:06:38;12.20;99.90
52867;DHT22;38739;53.324;6.862;2022-10-16T00:09:05;12.20;99.90
52867;DHT22;38739;53.324;6.862;2022-10-16T00:11:34;12.20;99.90
52867;DHT22;38739;53.324;6.862;2022-10-16T00:14:04;12.20;99.90
52867;DHT22;38739;53.324;6.862;2022-10-16T00:16:30;12.20;99.90
52867;DHT22;38739;53.324;6.862;2022-10-16T00:18:56;12.20;99.90
52867;DHT22;38739;53.324;6.862;2022-10-16T00:21:28;12.20;99.90
52867;DHT22;38739;53.324;6.862;2022-10-16T00:23:57;12.20;99.90
52867;DHT22;38739;53.324;6.862;2022-10-16T00:26:25;12.10;99.90
52867;DHT22;38739;53.324;6.862;2022-10-16T00:28:51;12.20;99.90
52867;DHT22;38739;53.324;6.862;2022-10-16T00:31:19;12.10;99.90
52867;DHT22;38739;53.324;6.862;2022-10-16T00:33:45;12.10;99.90
52867;DHT22;38739;53.324;6.862;2022-10-16T00:36:17;12.10;99.90
52867;DHT22;38739;53.324;6.862;2022-10-16T00:38:43;12.10;99.90
52867;DHT22;38739;53.324;6.862;2022-10-16T00:41:15;12.10;99.90
52867;DHT22;38739;53.324;6.862;2022-10-16T00:46:25;12.10;99.90
52867;DHT22;38739;53.324;6.862;2022-10-16T00:49:06;12.10;99.90
52867;DHT22;38739;53.324;6.862;2022-10-16T00:51:36;12.10;99.90
52867;DHT22;38739;53.324;6.862;2022-10-16T00:54:04;12.10;99.90
52867;DHT22;38739;53.324;6.862;2022-10-16T00:56:30;12.10;99.90
52867;DHT22;38739;53.324;6.862;2022-10-16T00:58:57;12.10;99.90
52867;DHT22;38739;53.324;6.862;2022-10-16T01:01:24;12.10;99.90
52867;DHT22;38739;53.324;6.862;2022-10-16T01:03:49;12.10;99.90
52867;DHT22;38739;53.324;6.862;2022-10-16T01:06:36;12.10;99.90
52867;DHT22;38739;53.324;6.862;2022-10-16T01:09:25;12.10;99.90
52867;DHT22;38739;53.324;6.862;2022-10-16T01:12:09;12.10;99.90
52867;DHT22;38739;53.324;6.862;2022-10-16T01:14:49;12.10;99.90
52867;DHT22;38739;53.324;6.862;2022-10-16T01:17:28;12.10;99.90
52867;DHT22;38739;53.324;6.862;2022-10-16T01:20:20;12.10;99.90
52867;DHT22;38739;53.324;6.862;2022-10-16T01:23:02;12.10;99.90
52867;DHT22;38739;53.324;6.862;2022-10-16T01:28:51;12.10;99.90
52867;DHT22;38739;53.324;6.862;2022-10-16T01:31:21;12.00;99.90
52867;DHT22;38739;53.324;6.862;2022-10-16T01:33:56;12.00;99.90
52867;DHT22;38739;53.324;6.862;2022-10-16T01:36:35;12.00;99.90
52867;DHT22;38739;53.324;6.862;2022-10-16T01:39:02;12.00;99.90
52867;DHT22;38739;53.324;6.862;2022-10-16T01:41:33;12.00;99.90
52867;DHT22;38739;53.324;6.862;2022-10-16T01:44:23;12.00;99.90
52867;DHT22;38739;53.324;6.862;2022-10-16T01:46:52;12.00;99.90
52867;DHT22;38739;53.324;6.862;2022-10-16T01:49:21;12.00;99.90
52867;DHT22;38739;53.324;6.862;2022-10-16T01:51:50;11.90;99.90
52867;DHT22;38739;53.324;6.862;2022-10-16T01:54:19;11.90;99.90
52867;DHT22;38739;53.324;6.862;2022-10-16T01:56:46;11.90;99.90
52867;DHT22;38739;53.324;6.862;2022-10-16T01:59:16;11.90;99.90
52867;DHT22;38739;53.324;6.862;2022-10-16T02:01:45;11.90;99.90
52867;DHT22;38739;53.324;6.862;2022-10-16T02:04:20;11.90;99.90
52867;DHT22;38739;53.324;6.862;2022-10-16T02:06:46;11.80;99.90
52867;DHT22;38739;53.324;6.862;2022-10-16T02:09:12;11.80;99.90
52867;DHT22;38739;53.324;6.862;2022-10-16T02:11:37;11.90;99.90
52867;DHT22;38739;53.324;6.862;2022-10-16T02:14:07;11.90;99.90
52867;DHT22;38739;53.324;6.862;2022-10-16T02:16:44;11.90;99.90
52867;DHT22;38739;53.324;6.862;2022-10-16T02:19:12;12.00;99.90
52867;DHT22;38739;53.324;6.862;2022-10-16T02:21:47;12.00;99.90
52867;DHT22;38739;53.324;6.862;2022-10-16T02:24:54;12.00;99.90
52867;DHT22;38739;53.324;6.862;2022-10-16T02:27:27;12.00;99.90
52867;DHT22;38739;53.324;6.862;2022-10-16T02:30:07;12.10;99.90
52867;DHT22;38739;53.324;6.862;2022-10-16T02:32:37;12.10;99.90
52867;DHT22;38739;53.324;6.862;2022-10-16T02:35:04;12.10;99.90
52867;DHT22;38739;53.324;6.862;2022-10-16T02:37:35;12.10;99.90
52867;DHT22;38739;53.324;6.862;2022-10-16T02:40:02;12.10;99.90
52867;DHT22;38739;53.324;6.862;2022-10-16T02:42:35;12.10;99.90
52867;DHT22;38739;53.324;6.862;2022-10-16T02:45:02;12.20;99.90
52867;DHT22;38739;53.324;6.862;2022-10-16T02:47:31;12.20;99.90
52867;DHT22;38739;53.324;6.862;2022-10-16T02:49:57;12.20;99.90
52867;DHT22;38739;53.324;6.862;2022-10-16T02:52:23;12.20;99.90
52867;DHT22;38739;53.324;6.862;2022-10-16T02:54:48;12.20;99.90
52867;DHT22;38739;53.324;6.862;2022-10-16T02:57:14;12.20;99.90
52867;DHT22;38739;53.324;6.862;2022-10-16T02:59:40;12.30;99.90
52867;DHT22;38739;53.324;6.862;2022-10-16T03:02:06;12.30;99.90
52867;DHT22;38739;53.324;6.862;2022-10-16T03:04:31;12.30;99.90
52867;DHT22;38739;53.324;6.862;2022-10-16T03:06:57;12.30;99.90
52867;DHT22;38739;53.324;6.862;2022-10-16T03:09:23;12.30;99.90
52867;DHT22;38739;53.324;6.862;2022-10-16T03:11:48;12.30;99.90
52867;DHT22;38739;53.324;6.862;2022-10-16T03:14:14;12.30;99.90
52867;DHT22;38739;53.324;6.862;2022-10-16T03:16:40;12.30;99.90
52867;DHT22;38739;53.324;6.862;2022-10-16T03:19:05;12.30;99.90
52867;DHT22;38739;53.324;6.862;2022-10-16T03:21:31;12.30;99.90
52867;DHT22;38739;53.324;6.862;2022-10-16T03:23:57;12.30;99.90
52867;DHT22;38739;53.324;6.862;2022-10-16T03:26:22;12.30;99.90
52867;DHT22;38739;53.324;6.862;2022-10-16T03:28:48;12.30;99.90
52867;DHT22;38739;53.324;6.862;2022-10-16T03:31:14;12.30;99.90
52867;DHT22;38739;53.324;6.862;2022-10-16T03:33:39;12.30;99.90
52867;DHT22;38739;53.324;6.862;2022-10-16T03:36:05;12.30;99.90
52867;DHT22;38739;53.324;6.862;2022-10-16T03:38:32;12.30;99.90
52867;DHT22;38739;53.324;6.862;2022-10-16T03:40:58;12.30;99.90
52867;DHT22;38739;53.324;6.862;2022-10-16T03:43:23;12.30;99.90
52867;DHT22;38739;53.324;6.862;2022-10-16T03:45:52;12.20;99.90
52867;DHT22;38739;53.324;6.862;2022-10-16T03:48:19;12.20;99.90
52867;DHT22;38739;53.324;6.862;2022-10-16T03:50:44;12.20;99.90
52867;DHT22;38739;53.324;6.862;2022-10-16T03:53:11;12.20;99.90
52867;DHT22;38739;53.324;6.862;2022-10-16T03:55:37;12.20;99.90
52867;DHT22;38739;53.324;6.862;2022-10-16T03:58:03;12.20;99.90
52867;DHT22;38739;53.324;6.862;2022-10-16T04:00:28;12.20;99.90
52867;DHT22;38739;53.324;6.862;2022-10-16T04:02:54;12.20;99.90
52867;DHT22;38739;53.324;6.862;2022-10-16T04:05:20;12.20;99.90
52867;DHT22;38739;53.324;6.862;2022-10-16T04:07:45;12.10;99.90
52867;DHT22;38739;53.324;6.862;2022-10-16T04:10:11;12.10;99.90
52867;DHT22;38739;53.324;6.862;2022-10-16T04:12:37;12.10;99.90
52867;DHT22;38739;53.324;6.862;2022-10-16T04:15:03;12.10;99.90
52867;DHT22;38739;53.324;6.862;2022-10-16T04:17:29;12.10;99.90
52867;DHT22;38739;53.324;6.862;2022-10-16T04:19:54;12.10;99.90
52867;DHT22;38739;53.324;6.862;2022-10-16T04:22:20;12.10;99.90
52867;DHT22;38739;53.324;6.862;2022-10-16T04:24:46;12.10;99.90
52867;DHT22;38739;53.324;6.862;2022-10-16T04:27:12;12.10;99.90
52867;DHT22;38739;53.324;6.862;2022-10-16T04:29:38;12.10;99.90
52867;DHT22;38739;53.324;6.862;2022-10-16T04:32:03;12.10;99.90
52867;DHT22;38739;53.324;6.862;2022-10-16T04:34:29;12.10;99.90
52867;DHT22;38739;53.324;6.862;2022-10-16T04:36:55;12.10;99.90
52867;DHT22;38739;53.324;6.862;2022-10-16T04:39:20;12.10;99.90
52867;DHT22;38739;53.324;6.862;2022-10-16T04:41:46;12.00;99.90
52867;DHT22;38739;53.324;6.862;2022-10-16T04:44:12;12.00;99.90
52867;DHT22;38739;53.324;6.862;2022-10-16T04:46:37;12.00;99.90
52867;DHT22;38739;53.324;6.862;2022-10-16T04:49:03;12.00;99.90
52867;DHT22;38739;53.324;6.862;2022-10-16T04:51:29;12.00;99.90
52867;DHT22;38739;53.324;6.862;2022-10-16T04:53:55;12.00;99.90
52867;DHT22;38739;53.324;6.862;2022-10-16T04:56:21;12.10;99.90
52867;DHT22;38739;53.324;6.862;2022-10-16T04:58:47;12.00;99.90
52867;DHT22;38739;53.324;6.862;2022-10-16T05:01:13;12.00;99.90
52867;DHT22;38739;53.324;6.862;2022-10-16T05:03:39;12.10;99.90
52867;DHT22;38739;53.324;6.862;2022-10-16T05:06:07;12.10;99.90
52867;DHT22;38739;53.324;6.862;2022-10-16T05:08:33;12.10;99.90
52867;DHT22;38739;53.324;6.862;2022-10-16T05:10:59;12.10;99.90
52867;DHT22;38739;53.324;6.862;2022-10-16T05:13:25;12.10;99.90
52867;DHT22;38739;53.324;6.862;2022-10-16T05:15:51;12.10;99.90
52867;DHT22;38739;53.324;6.862;2022-10-16T05:18:17;12.20;99.90
52867;DHT22;38739;53.324;6.862;2022-10-16T05:20:42;12.20;99.90
52867;DHT22;38739;53.324;6.862;2022-10-16T05:23:08;12.20;99.90
52867;DHT22;38739;53.324;6.862;2022-10-16T05:25:36;12.20;99.90
52867;DHT22;38739;53.324;6.862;2022-10-16T05:28:02;12.20;99.90
52867;DHT22;38739;53.324;6.862;2022-10-16T05:30:28;12.20;99.90
52867;DHT22;38739;53.324;6.862;2022-10-16T05:32:54;12.20;99.90
52867;DHT22;38739;53.324;6.862;2022-10-16T05:35:20;12.30;99.90
52867;DHT22;38739;53.324;6.862;2022-10-16T05:37:46;12.30;99.90
52867;DHT22;38739;53.324;6.862;2022-10-16T05:40:12;12.30;99.90
52867;DHT22;38739;53.324;6.862;2022-10-16T05:42:39;12.30;99.90
52867;DHT22;38739;53.324;6.862;2022-10-16T05:45:06;12.30;99.90
52867;DHT22;38739;53.324;6.862;2022-10-16T05:47:32;12.30;99.90
52867;DHT22;38739;53.324;6.862;2022-10-16T05:49:57;12.30;99.90
52867;DHT22;38739;53.324;6.862;2022-10-16T05:52:23;12.30;99.90
52867;DHT22;38739;53.324;6.862;2022-10-16T05:54:49;12.30;99.90
52867;DHT22;38739;53.324;6.862;2022-10-16T05:57:15;12.30;99.90
52867;DHT22;38739;53.324;6.862;2022-10-16T05:59:40;12.30;99.90
52867;DHT22;38739;53.324;6.862;2022-10-16T06:02:11;12.30;99.90
52867;DHT22;38739;53.324;6.862;2022-10-16T06:04:41;12.30;99.90
52867;DHT22;38739;53.324;6.862;2022-10-16T06:07:06;12.40;99.90
52867;DHT22;38739;53.324;6.862;2022-10-16T06:09:32;12.40;99.90
52867;DHT22;38739;53.324;6.862;2022-10-16T06:11:58;12.40;99.90
52867;DHT22;38739;53.324;6.862;2022-10-16T06:14:23;12.40;99.90
52867;DHT22;38739;53.324;6.862;2022-10-16T06:16:49;12.40;99.90
52867;DHT22;38739;53.324;6.862;2022-10-16T06:19:15;12.40;99.90
52867;DHT22;38739;53.324;6.862;2022-10-16T06:21:41;12.40;99.90
52867;DHT22;38739;53.324;6.862;2022-10-16T06:24:08;12.40;99.90
52867;DHT22;38739;53.324;6.862;2022-10-16T06:26:33;12.40;99.90
52867;DHT22;38739;53.324;6.862;2022-10-16T06:29:00;12.50;99.90
52867;DHT22;38739;53.324;6.862;2022-10-16T06:31:27;12.50;99.90
52867;DHT22;38739;53.324;6.862;2022-10-16T06:33:55;12.50;99.90
52867;DHT22;38739;53.324;6.862;2022-10-16T06:36:22;12.50;99.90
52867;DHT22;38739;53.324;6.862;2022-10-16T06:38:48;12.50;99.90
52867;DHT22;38739;53.324;6.862;2022-10-16T06:41:18;12.50;99.90
52867;DHT22;38739;53.324;6.862;2022-10-16T06:43:44;12.50;99.90
52867;DHT22;38739;53.324;6.862;2022-10-16T06:46:12;12.60;99.90
52867;DHT22;38739;53.324;6.862;2022-10-16T06:48:39;12.60;99.90
52867;DHT22;38739;53.324;6.862;2022-10-16T06:51:18;12.60;99.90
52867;DHT22;38739;53.324;6.862;2022-10-16T06:53:46;12.70;99.90
52867;DHT22;38739;53.324;6.862;2022-10-16T06:56:22;12.70;99.90
52867;DHT22;38739;53.324;6.862;2022-10-16T06:58:49;12.70;99.90
52867;DHT22;38739;53.324;6.862;2022-10-16T07:01:17;12.70;99.90
52867;DHT22;38739;53.324;6.862;2022-10-16T07:03:44;12.70;99.90
52867;DHT22;38739;53.324;6.862;2022-10-16T07:06:13;12.80;99.90
52867;DHT22;38739;53.324;6.862;2022-10-16T07:08:41;12.80;99.90
52867;DHT22;38739;53.324;6.862;2022-10-16T07:11:08;12.80;99.90
52867;DHT22;38739;53.324;6.862;2022-10-16T07:13:36;12.80;99.90
52867;DHT22;38739;53.324;6.862;2022-10-16T07:16:13;12.80;99.90
52867;DHT22;38739;53.324;6.862;2022-10-16T07:18:40;12.90;99.90
52867;DHT22;38739;53.324;6.862;2022-10-16T07:21:10;12.90;99.90
52867;DHT22;38739;53.324;6.862;2022-10-16T07:23:36;13.00;99.90
52867;DHT22;38739;53.324;6.862;2022-10-16T07:26:03;13.00;99.90
52867;DHT22;38739;53.324;6.862;2022-10-16T07:28:29;13.00;99.90
52867;DHT22;38739;53.324;6.862;2022-10-16T07:31:00;13.00;99.90
52867;DHT22;38739;53.324;6.862;2022-10-16T07:33:26;13.00;99.90
52867;DHT22;38739;53.324;6.862;2022-10-16T07:35:53;13.10;99.90
52867;DHT22;38739;53.324;6.862;2022-10-16T07:38:20;13.10;99.90
52867;DHT22;38739;53.324;6.862;2022-10-16T07:40:46;13.10;99.90
52867;DHT22;38739;53.324;6.862;2022-10-16T07:43:12;13.10;99.90
52867;DHT22;38739;53.324;6.862;2022-10-16T07:45:49;13.20;99.90
52867;DHT22;38739;53.324;6.862;2022-10-16T07:48:16;13.20;99.90
52867;DHT22;38739;53.324;6.862;2022-10-16T07:50:42;13.20;99.90
52867;DHT22;38739;53.324;6.862;2022-10-16T07:53:08;13.20;99.90
52867;DHT22;38739;53.324;6.862;2022-10-16T07:55:34;13.20;99.90
52867;DHT22;38739;53.324;6.862;2022-10-16T07:58:00;13.30;99.90
52867;DHT22;38739;53.324;6.862;2022-10-16T08:00:26;13.30;99.90
52867;DHT22;38739;53.324;6.862;2022-10-16T08:02:51;13.30;99.90
52867;DHT22;38739;53.324;6.862;2022-10-16T08:05:17;13.40;99.90
52867;DHT22;38739;53.324;6.862;2022-10-16T08:07:47;13.40;99.90
52867;DHT22;38739;53.324;6.862;2022-10-16T08:10:20;13.50;99.90
52867;DHT22;38739;53.324;6.862;2022-10-16T08:12:46;13.60;99.90
52867;DHT22;38739;53.324;6.862;2022-10-16T08:15:12;13.60;99.90
52867;DHT22;38739;53.324;6.862;2022-10-16T08:17:38;13.60;99.90
52867;DHT22;38739;53.324;6.862;2022-10-16T08:20:04;13.60;99.90
52867;DHT22;38739;53.324;6.862;2022-10-16T08:22:30;13.60;99.90
52867;DHT22;38739;53.324;6.862;2022-10-16T08:24:56;13.70;99.90
52867;DHT22;38739;53.324;6.862;2022-10-16T08:27:22;13.70;99.90
52867;DHT22;38739;53.324;6.862;2022-10-16T08:29:51;13.70;99.90
52867;DHT22;38739;53.324;6.862;2022-10-16T08:32:16;13.70;99.90
52867;DHT22;38739;53.324;6.862;2022-10-16T08:34:42;13.80;99.90
52867;DHT22;38739;53.324;6.862;2022-10-16T08:37:08;14.00;99.90
52867;DHT22;38739;53.324;6.862;2022-10-16T08:39:36;14.10;99.90
52867;DHT22;38739;53.324;6.862;2022-10-16T08:47:56;14.50;99.90
52867;DHT22;38739;53.324;6.862;2022-10-16T08:50:28;14.60;99.90
52867;DHT22;38739;53.324;6.862;2022-10-16T08:52:55;14.70;99.90
52867;DHT22;38739;53.324;6.862;2022-10-16T08:55:53;14.80;99.90
52867;DHT22;38739;53.324;6.862;2022-10-16T08:58:22;14.90;99.90
52867;DHT22;38739;53.324;6.862;2022-10-16T09:00:56;14.90;99.90
52867;DHT22;38739;53.324;6.862;2022-10-16T09:17:21;15.50;99.90
52867;DHT22;38739;53.324;6.862;2022-10-16T09:22:48;15.50;99.90
52867;DHT22;38739;53.324;6.862;2022-10-16T09:25:20;15.40;99.90
52867;DHT22;38739;53.324;6.862;2022-10-16T09:27:55;15.40;99.90
52867;DHT22;38739;53.324;6.862;2022-10-16T09:30:22;15.40;99.90
52867;DHT22;38739;53.324;6.862;2022-10-16T09:32:51;15.90;99.90
52867;DHT22;38739;53.324;6.862;2022-10-16T09:35:22;16.40;99.90
52867;DHT22;38739;53.324;6.862;2022-10-16T09:37:50;16.70;99.90
52867;DHT22;38739;53.324;6.862;2022-10-16T09:46:36;17.50;99.90
52867;DHT22;38739;53.324;6.862;2022-10-16T09:48:49;18.50;99.90
52867;DHT22;38739;53.324;6.862;2022-10-16T09:51:25;19.40;99.90
52867;DHT22;38739;53.324;6.862;2022-10-16T09:53:57;19.50;99.90
52867;DHT22;38739;53.324;6.862;2022-10-16T09:56:32;19.30;99.90
52867;DHT22;38739;53.324;6.862;2022-10-16T09:59:08;19.10;99.90
52867;DHT22;38739;53.324;6.862;2022-10-16T10:01:41;18.80;99.90
52867;DHT22;38739;53.324;6.862;2022-10-16T10:04:08;19.10;99.90
52867;DHT22;38739;53.324;6.862;2022-10-16T10:06:34;19.40;99.90
52867;DHT22;38739;53.324;6.862;2022-10-16T10:09:04;19.40;99.90
52867;DHT22;38739;53.324;6.862;2022-10-16T10:11:42;19.30;99.90
52867;DHT22;38739;53.324;6.862;2022-10-16T10:14:32;19.50;99.90
52867;DHT22;38739;53.324;6.862;2022-10-16T10:17:10;20.10;99.90
52867;DHT22;38739;53.324;6.862;2022-10-16T10:19:40;20.20;99.90
52867;DHT22;38739;53.324;6.862;2022-10-16T10:22:40;20.50;99.90
52867;DHT22;38739;53.324;6.862;2022-10-16T10:30:23;21.70;99.90
52867;DHT22;38739;53.324;6.862;2022-10-16T10:44:18;23.40;99.90
52867;DHT22;38739;53.324;6.862;2022-10-16T11:08:00;23.40;99.90
52867;DHT22;38739;53.324;6.862;2022-10-16T11:10:33;23.90;99.90
52867;DHT22;38739;53.324;6.862;2022-10-16T11:13:19;24.00;99.90
52867;DHT22;38739;53.324;6.862;2022-10-16T11:15:48;24.50;99.90
52867;DHT22;38739;53.324;6.862;2022-10-16T11:18:21;25.40;99.90
52867;DHT22;38739;53.324;6.862;2022-10-16T11:20:52;25.80;99.50
52867;DHT22;38739;53.324;6.862;2022-10-16T11:23:30;26.40;96.60
52867;DHT22;38739;53.324;6.862;2022-10-16T11:26:02;26.90;95.30
52867;DHT22;38739;53.324;6.862;2022-10-16T11:28:32;27.30;92.70
52867;DHT22;38739;53.324;6.862;2022-10-16T11:46:46;28.80;81.80
52867;DHT22;38739;53.324;6.862;2022-10-16T11:49:21;29.10;80.10
52867;DHT22;38739;53.324;6.862;2022-10-16T12:00:07;29.20;75.70
52867;DHT22;38739;53.324;6.862;2022-10-16T12:05:20;28.40;75.50
52867;DHT22;38739;53.324;6.862;2022-10-16T12:10:26;27.60;77.50
52867;DHT22;38739;53.324;6.862;2022-10-16T12:12:53;26.90;78.00
52867;DHT22;38739;53.324;6.862;2022-10-16T12:15:28;25.90;80.30
52867;DHT22;38739;53.324;6.862;2022-10-16T12:17:55;25.70;81.70
52867;DHT22;38739;53.324;6.862;2022-10-16T12:20:32;24.70;81.90
52867;DHT22;38739;53.324;6.862;2022-10-16T12:23:07;24.20;84.60
52867;DHT22;38739;53.324;6.862;2022-10-16T12:25:57;23.10;87.90
52867;DHT22;38739;53.324;6.862;2022-10-16T12:28:28;22.40;90.20
52867;DHT22;38739;53.324;6.862;2022-10-16T12:31:07;21.60;91.30
52867;DHT22;38739;53.324;6.862;2022-10-16T12:33:53;21.20;93.40
52867;DHT22;38739;53.324;6.862;2022-10-16T12:36:32;20.70;94.80
52867;DHT22;38739;53.324;6.862;2022-10-16T12:38:59;20.70;93.90
52867;DHT22;38739;53.324;6.862;2022-10-16T12:41:31;21.30;93.80
52867;DHT22;38739;53.324;6.862;2022-10-16T12:43:58;22.00;91.10
52867;DHT22;38739;53.324;6.862;2022-10-16T12:51:54;22.80;86.50
52867;DHT22;38739;53.324;6.862;2022-10-16T13:00:22;21.00;91.50
52867;DHT22;38739;53.324;6.862;2022-10-16T13:13:44;19.40;95.90
52867;DHT22;38739;53.324;6.862;2022-10-16T13:30:23;20.40;95.50
52867;DHT22;38739;53.324;6.862;2022-10-16T13:32:53;20.30;95.70
52867;DHT22;38739;53.324;6.862;2022-10-16T13:35:31;20.00;96.10
52867;DHT22;38739;53.324;6.862;2022-10-16T13:38:15;19.80;96.60
52867;DHT22;38739;53.324;6.862;2022-10-16T13:41:05;19.50;96.30
52867;DHT22;38739;53.324;6.862;2022-10-16T13:43:35;19.20;97.40
52867;DHT22;38739;53.324;6.862;2022-10-16T13:46:25;18.90;98.60
52867;DHT22;38739;53.324;6.862;2022-10-16T13:48:59;18.70;99.10
52867;DHT22;38739;53.324;6.862;2022-10-16T13:51:25;18.50;99.90
52867;DHT22;38739;53.324;6.862;2022-10-16T13:53:51;18.40;99.90
52867;DHT22;38739;53.324;6.862;2022-10-16T13:56:20;18.30;99.90
52867;DHT22;38739;53.324;6.862;2022-10-16T13:58:57;18.20;99.90
52867;DHT22;38739;53.324;6.862;2022-10-16T14:01:26;18.10;99.90
52867;DHT22;38739;53.324;6.862;2022-10-16T14:03:52;18.00;99.90
52867;DHT22;38739;53.324;6.862;2022-10-16T14:06:21;17.90;99.90
52867;DHT22;38739;53.324;6.862;2022-10-16T14:11:46;17.80;99.90
52867;DHT22;38739;53.324;6.862;2022-10-16T14:14:14;17.80;99.90
52867;DHT22;38739;53.324;6.862;2022-10-16T14:16:41;17.80;99.90
52867;DHT22;38739;53.324;6.862;2022-10-16T14:19:22;17.80;99.90
52867;DHT22;38739;53.324;6.862;2022-10-16T14:21:50;17.70;99.90
52867;DHT22;38739;53.324;6.862;2022-10-16T14:24:42;17.70;99.90
52867;DHT22;38739;53.324;6.862;2022-10-16T14:27:29;17.60;99.90
52867;DHT22;38739;53.324;6.862;2022-10-16T14:32:33;17.50;99.90
52867;DHT22;38739;53.324;6.862;2022-10-16T14:34:59;17.40;99.90
52867;DHT22;38739;53.324;6.862;2022-10-16T14:37:29;17.30;99.90
52867;DHT22;38739;53.324;6.862;2022-10-16T14:39:56;17.20;99.90
52867;DHT22;38739;53.324;6.862;2022-10-16T14:42:24;17.20;99.90
52867;DHT22;38739;53.324;6.862;2022-10-16T14:44:52;17.10;99.90
52867;DHT22;38739;53.324;6.862;2022-10-16T14:47:21;17.10;99.90
52867;DHT22;38739;53.324;6.862;2022-10-16T14:49:51;17.00;99.90
52867;DHT22;38739;53.324;6.862;2022-10-16T14:52:17;17.00;99.90
52867;DHT22;38739;53.324;6.862;2022-10-16T14:54:48;17.00;99.90
52867;DHT22;38739;53.324;6.862;2022-10-16T14:57:23;17.00;99.90
52867;DHT22;38739;53.324;6.862;2022-10-16T14:59:49;17.00;99.90
52867;DHT22;38739;53.324;6.862;2022-10-16T15:02:28;16.90;99.90
52867;DHT22;38739;53.324;6.862;2022-10-16T15:04:55;16.80;99.90
52867;DHT22;38739;53.324;6.862;2022-10-16T15:07:21;16.70;99.90
52867;DHT22;38739;53.324;6.862;2022-10-16T15:09:47;16.60;99.90
52867;DHT22;38739;53.324;6.862;2022-10-16T15:12:13;16.60;99.90
52867;DHT22;38739;53.324;6.862;2022-10-16T15:14:38;16.60;99.90
52867;DHT22;38739;53.324;6.862;2022-10-16T15:17:04;16.50;99.90
52867;DHT22;38739;53.324;6.862;2022-10-16T15:19:30;16.40;99.90
52867;DHT22;38739;53.324;6.862;2022-10-16T15:21:56;16.40;99.90
52867;DHT22;38739;53.324;6.862;2022-10-16T15:24:22;16.30;99.90
52867;DHT22;38739;53.324;6.862;2022-10-16T15:26:48;16.20;99.90
52867;DHT22;38739;53.324;6.862;2022-10-16T15:29:15;16.20;99.90
52867;DHT22;38739;53.324;6.862;2022-10-16T15:31:41;16.10;99.90
52867;DHT22;38739;53.324;6.862;2022-10-16T15:34:13;16.10;99.90
52867;DHT22;38739;53.324;6.862;2022-10-16T15:36:39;16.00;99.90
52867;DHT22;38739;53.324;6.862;2022-10-16T15:39:17;16.00;99.90
52867;DHT22;38739;53.324;6.862;2022-10-16T15:41:43;15.90;99.90
52867;DHT22;38739;53.324;6.862;2022-10-16T15:44:09;15.90;99.90
52867;DHT22;38739;53.324;6.862;2022-10-16T15:46:35;15.70;99.90
52867;DHT22;38739;53.324;6.862;2022-10-16T15:49:03;15.70;99.90
52867;DHT22;38739;53.324;6.862;2022-10-16T15:51:29;15.60;99.90
52867;DHT22;38739;53.324;6.862;2022-10-16T15:53:58;15.50;99.90
52867;DHT22;38739;53.324;6.862;2022-10-16T15:56:25;15.40;99.90
52867;DHT22;38739;53.324;6.862;2022-10-16T15:58:52;15.40;99.90
52867;DHT22;38739;53.324;6.862;2022-10-16T16:01:19;15.30;99.90
52867;DHT22;38739;53.324;6.862;2022-10-16T16:03:47;15.10;99.90
52867;DHT22;38739;53.324;6.862;2022-10-16T16:06:14;15.10;99.90
52867;DHT22;38739;53.324;6.862;2022-10-16T16:08:40;15.00;99.90
52867;DHT22;38739;53.324;6.862;2022-10-16T16:11:14;14.90;99.90
52867;DHT22;38739;53.324;6.862;2022-10-16T16:13:40;14.80;99.90
52867;DHT22;38739;53.324;6.862;2022-10-16T16:16:08;14.60;99.90
52867;DHT22;38739;53.324;6.862;2022-10-16T16:18:35;14.50;99.90
52867;DHT22;38739;53.324;6.862;2022-10-16T16:21:01;14.40;99.90
52867;DHT22;38739;53.324;6.862;2022-10-16T16:23:27;14.30;99.90
52867;DHT22;38739;53.324;6.862;2022-10-16T16:26:14;14.30;99.90
52867;DHT22;38739;53.324;6.862;2022-10-16T16:28:43;14.20;99.90
52867;DHT22;38739;53.324;6.862;2022-10-16T16:31:27;14.10;99.90
52867;DHT22;38739;53.324;6.862;2022-10-16T16:33:53;14.00;99.90
52867;DHT22;38739;53.324;6.862;2022-10-16T16:36:26;13.90;99.90
52867;DHT22;38739;53.324;6.862;2022-10-16T16:38:56;13.80;99.90
52867;DHT22;38739;53.324;6.862;2022-10-16T16:41:30;13.70;99.90
52867;DHT22;38739;53.324;6.862;2022-10-16T16:44:05;13.60;99.90
52867;DHT22;38739;53.324;6.862;2022-10-16T16:46:36;13.60;99.90
52867;DHT22;38739;53.324;6.862;2022-10-16T16:49:02;13.50;99.90
52867;DHT22;38739;53.324;6.862;2022-10-16T16:51:29;13.40;99.90
52867;DHT22;38739;53.324;6.862;2022-10-16T16:53:55;13.30;99.90
52867;DHT22;38739;53.324;6.862;2022-10-16T16:56:23;13.30;99.90
52867;DHT22;38739;53.324;6.862;2022-10-16T16:58:51;13.20;99.90
52867;DHT22;38739;53.324;6.862;2022-10-16T17:01:17;13.20;99.90
52867;DHT22;38739;53.324;6.862;2022-10-16T17:03:44;13.10;99.90
52867;DHT22;38739;53.324;6.862;2022-10-16T17:06:11;13.10;99.90
52867;DHT22;38739;53.324;6.862;2022-10-16T17:08:37;13.00;99.90
52867;DHT22;38739;53.324;6.862;2022-10-16T17:11:04;13.00;99.90
52867;DHT22;38739;53.324;6.862;2022-10-16T17:13:32;12.90;99.90
52867;DHT22;38739;53.324;6.862;2022-10-16T17:16:04;12.90;99.90
52867;DHT22;38739;53.324;6.862;2022-10-16T17:18:31;12.80;99.90
52867;DHT22;38739;53.324;6.862;2022-10-16T17:21:05;12.80;99.90
52867;DHT22;38739;53.324;6.862;2022-10-16T17:23:32;12.70;99.90
52867;DHT22;38739;53.324;6.862;2022-10-16T17:26:05;12.60;99.90
52867;DHT22;38739;53.324;6.862;2022-10-16T17:28:31;12.60;99.90
52867;DHT22;38739;53.324;6.862;2022-10-16T17:31:07;12.60;99.90
52867;DHT22;38739;53.324;6.862;2022-10-16T17:33:35;12.50;99.90
52867;DHT22;38739;53.324;6.862;2022-10-16T17:36:01;12.40;99.90
52867;DHT22;38739;53.324;6.862;2022-10-16T17:38:27;12.40;99.90
52867;DHT22;38739;53.324;6.862;2022-10-16T17:40:53;12.40;99.90
52867;DHT22;38739;53.324;6.862;2022-10-16T17:43:19;12.40;99.90
52867;DHT22;38739;53.324;6.862;2022-10-16T17:45:44;12.30;99.90
52867;DHT22;38739;53.324;6.862;2022-10-16T17:48:10;12.30;99.90
52867;DHT22;38739;53.324;6.862;2022-10-16T17:50:39;12.30;99.90
52867;DHT22;38739;53.324;6.862;2022-10-16T17:53:05;12.30;99.90
52867;DHT22;38739;53.324;6.862;2022-10-16T17:55:40;12.30;99.90
52867;DHT22;38739;53.324;6.862;2022-10-16T17:58:07;12.20;99.90
52867;DHT22;38739;53.324;6.862;2022-10-16T18:00:33;12.20;99.90
52867;DHT22;38739;53.324;6.862;2022-10-16T18:02:59;12.20;99.90
52867;DHT22;38739;53.324;6.862;2022-10-16T18:05:25;12.10;99.90
52867;DHT22;38739;53.324;6.862;2022-10-16T18:07:50;12.10;99.90